createdAt,value
2022-12-29T00:00:45.357Z,16.4
2022-12-29T00:01:47.857Z,16.5
2022-12-29T00:02:50.772Z,16.6
2022-12-29T00:03:53.916Z,16.6
2022-12-29T00:04:56.845Z,16.6
2022-12-29T00:05:59.386Z,16.6
2022-12-29T00:07:01.681Z,16.5
2022-12-29T00:08:04.222Z,16.5
2022-12-29T00:09:06.760Z,16.5
2022-12-29T00:10:09.338Z,16.6
2022-12-29T00:11:11.586Z,16.6
2022-12-29T00:12:14.170Z,16.6
2022-12-29T00:13:16.715Z,16.5
2022-12-29T00:15:24.297Z,16.7
2022-12-29T00:16:26.125Z,16.7
2022-12-29T00:17:29.091Z,16.5
2022-12-29T00:18:31.603Z,16.6
2022-12-29T00:19:34.569Z,16.6
2022-12-29T00:20:36.873Z,16.7
2022-12-29T00:21:39.172Z,16.7
2022-12-29T00:22:41.694Z,16.7
2022-12-29T00:23:44.393Z,16.6
2022-12-29T00:24:46.631Z,16.5
2022-12-29T00:25:48.869Z,16.7
2022-12-29T00:26:51.405Z,16.6
2022-12-29T00:27:53.709Z,16.7
2022-12-29T00:28:56.205Z,16.6
2022-12-29T00:29:58.811Z,16.6
2022-12-29T00:31:01.244Z,16.6
2022-12-29T00:32:03.289Z,16.7
2022-12-29T00:33:05.825Z,16.6
2022-12-29T00:34:08.569Z,16.6
2022-12-29T00:35:11.093Z,16.6
2022-12-29T00:36:13.325Z,16.6
2022-12-29T00:37:16.733Z,16.7
2022-12-29T00:38:20.064Z,16.7
2022-12-29T00:39:22.362Z,16.7
2022-12-29T00:40:24.603Z,16.6
2022-12-29T00:41:27.113Z,16.8
2022-12-29T00:42:29.703Z,16.7
2022-12-29T00:43:32.259Z,16.7
2022-12-29T00:44:34.822Z,16.8
2022-12-29T00:45:37.437Z,16.8
2022-12-29T00:46:39.778Z,16.7
2022-12-29T00:47:42.184Z,16.8
2022-12-29T00:48:44.140Z,16.8
2022-12-29T00:49:45.845Z,16.7
2022-12-29T00:50:48.413Z,16.8
2022-12-29T00:51:50.931Z,16.7
2022-12-29T00:52:53.166Z,16.7
2022-12-29T00:53:55.410Z,16.7
2022-12-29T00:54:57.918Z,16.7
2022-12-29T00:56:00.153Z,16.8
2022-12-29T00:57:02.466Z,16.7
2022-12-29T00:58:04.459Z,16.7
2022-12-29T00:59:07.684Z,16.8
2022-12-29T01:00:10.205Z,16.8
2022-12-29T01:01:12.616Z,16.7
2022-12-29T01:02:16.391Z,16.8
2022-12-29T01:03:20.265Z,16.7
2022-12-29T01:04:23.077Z,16.8
2022-12-29T01:05:25.352Z,16.8
2022-12-29T01:06:27.903Z,16.8
2022-12-29T01:07:30.506Z,16.7
2022-12-29T01:08:34.108Z,16.7
2022-12-29T01:09:36.910Z,16.8
2022-12-29T01:10:39.159Z,16.8
2022-12-29T01:11:41.674Z,16.8
2022-12-29T01:12:44.185Z,16.8
2022-12-29T01:13:46.759Z,16.8
2022-12-29T01:14:49.327Z,16.8
2022-12-29T01:15:51.962Z,16.8
2022-12-29T01:16:54.782Z,16.7
2022-12-29T01:17:57.061Z,16.8
2022-12-29T01:18:59.650Z,16.7
2022-12-29T01:20:01.955Z,16.8
2022-12-29T01:21:04.523Z,16.7
2022-12-29T01:22:07.799Z,16.8
2022-12-29T01:23:09.785Z,16.8
2022-12-29T01:24:12.296Z,16.8
2022-12-29T01:25:15.136Z,16.8
2022-12-29T01:26:19.243Z,16.9
2022-12-29T01:27:21.759Z,16.8
2022-12-29T01:29:29.282Z,16.8
2022-12-29T01:30:31.870Z,16.8
2022-12-29T01:31:34.644Z,16.9
2022-12-29T01:32:37.477Z,16.8
2022-12-29T01:33:40.030Z,16.8
2022-12-29T01:34:42.260Z,16.8
2022-12-29T01:35:44.763Z,16.9
2022-12-29T01:36:47.013Z,16.7
2022-12-29T01:37:49.580Z,16.9
2022-12-29T01:38:52.112Z,16.8
2022-12-29T01:39:54.357Z,16.8
2022-12-29T01:40:56.872Z,16.8
2022-12-29T01:41:59.442Z,16.9
2022-12-29T01:43:02.115Z,16.7
2022-12-29T01:44:04.658Z,16.8
2022-12-29T01:45:08.289Z,16.9
2022-12-29T01:46:10.931Z,16.9
2022-12-29T01:47:13.341Z,16.8
2022-12-29T01:48:18.491Z,16.9
2022-12-29T01:49:20.744Z,16.9
2022-12-29T01:50:23.259Z,16.9
2022-12-29T01:51:25.532Z,16.9
2022-12-29T01:52:28.051Z,16.8
2022-12-29T01:53:30.588Z,16.9
2022-12-29T01:54:33.124Z,16.8
2022-12-29T01:55:35.371Z,16.9
2022-12-29T01:56:37.887Z,16.9
2022-12-29T01:57:40.124Z,16.9
2022-12-29T01:58:42.658Z,16.9
2022-12-29T01:59:44.624Z,16.9
2022-12-29T02:00:47.304Z,16.9
2022-12-29T02:01:50.452Z,16.9
2022-12-29T02:02:53.688Z,16.9
2022-12-29T02:03:56.284Z,16.9
2022-12-29T02:06:03.212Z,16.9
2022-12-29T02:07:05.710Z,16.8
2022-12-29T02:08:09.333Z,16.9
2022-12-29T02:09:11.837Z,16.8
2022-12-29T02:10:15.245Z,16.9
2022-12-29T02:11:18.158Z,16.8
2022-12-29T02:12:20.644Z,16.9
2022-12-29T02:13:22.637Z,16.9
2022-12-29T02:14:24.885Z,17
2022-12-29T02:15:27.138Z,16.9
2022-12-29T02:16:29.961Z,16.9
2022-12-29T02:17:33.265Z,16.9
2022-12-29T02:18:35.503Z,16.9
2022-12-29T02:19:38.092Z,16.9
2022-12-29T02:20:40.621Z,16.9
2022-12-29T02:21:43.142Z,16.9
2022-12-29T02:22:45.379Z,16.9
2022-12-29T02:23:47.887Z,16.9
2022-12-29T02:24:50.429Z,16.9
2022-12-29T02:25:52.915Z,16.9
2022-12-29T02:26:55.252Z,17
2022-12-29T02:27:57.237Z,16.9
2022-12-29T02:28:59.747Z,16.9
2022-12-29T02:30:02.041Z,17
2022-12-29T02:31:04.584Z,16.9
2022-12-29T02:32:08.066Z,16.9
2022-12-29T02:33:11.069Z,16.9
2022-12-29T02:34:13.598Z,16.8
2022-12-29T02:35:16.948Z,16.9
2022-12-29T02:36:20.864Z,16.9
2022-12-29T02:37:23.384Z,16.9
2022-12-29T02:38:25.883Z,17
2022-12-29T02:39:28.404Z,17
2022-12-29T02:40:30.910Z,17
2022-12-29T02:41:33.144Z,17
2022-12-29T02:42:35.804Z,17
2022-12-29T02:43:38.327Z,16.9
2022-12-29T02:44:40.559Z,16.9
2022-12-29T02:45:42.928Z,17
2022-12-29T02:46:45.654Z,16.9
2022-12-29T02:47:48.178Z,17
2022-12-29T02:48:50.477Z,16.9
2022-12-29T02:49:52.985Z,16.9
2022-12-29T02:50:55.613Z,16.9
2022-12-29T02:51:58.161Z,17
2022-12-29T02:53:00.476Z,17
2022-12-29T02:54:02.787Z,17
2022-12-29T02:55:05.309Z,16.9
2022-12-29T02:56:08.321Z,16.9
2022-12-29T02:57:10.834Z,17
2022-12-29T02:58:13.355Z,17
2022-12-29T02:59:18.783Z,17
2022-12-29T03:00:21.281Z,16.9
2022-12-29T03:01:24.138Z,16.9
2022-12-29T03:02:27.483Z,16.9
2022-12-29T03:03:30.442Z,17
2022-12-29T03:04:34.412Z,17
2022-12-29T03:05:36.975Z,17
2022-12-29T03:06:39.561Z,16.9
2022-12-29T03:07:42.065Z,17
2022-12-29T03:08:44.332Z,16.9
2022-12-29T03:09:46.893Z,17
2022-12-29T03:10:49.151Z,17
2022-12-29T03:11:51.695Z,17
2022-12-29T03:12:54.245Z,17
2022-12-29T03:13:56.753Z,17
2022-12-29T03:14:59.010Z,16.9
2022-12-29T03:16:01.538Z,17
2022-12-29T03:17:03.854Z,17
2022-12-29T03:18:06.647Z,17
2022-12-29T03:19:08.646Z,17
2022-12-29T03:20:11.230Z,16.9
2022-12-29T03:21:14.923Z,16.9
2022-12-29T03:22:19.750Z,16.9
2022-12-29T03:23:22.016Z,17.1
2022-12-29T03:24:24.559Z,17
2022-12-29T03:25:27.126Z,16.9
2022-12-29T03:26:29.377Z,16.9
2022-12-29T03:27:31.874Z,16.9
2022-12-29T03:28:34.816Z,16.9
2022-12-29T03:29:37.350Z,16.9
2022-12-29T03:30:39.789Z,17
2022-12-29T03:31:42.566Z,17
2022-12-29T03:32:44.849Z,17
2022-12-29T03:33:47.461Z,17
2022-12-29T03:34:49.962Z,17
2022-12-29T03:35:52.253Z,17
2022-12-29T03:36:54.798Z,17
2022-12-29T03:37:57.191Z,17
2022-12-29T03:38:59.438Z,17
2022-12-29T03:40:01.943Z,17
2022-12-29T03:41:04.488Z,17
2022-12-29T03:42:07.926Z,17
2022-12-29T03:43:10.483Z,17
2022-12-29T03:44:13.026Z,16.9
2022-12-29T03:45:16.416Z,17
2022-12-29T03:46:21.082Z,17
2022-12-29T03:47:23.575Z,17.1
2022-12-29T03:48:26.125Z,17
2022-12-29T03:49:28.787Z,17
2022-12-29T03:50:31.324Z,17
2022-12-29T03:51:34.823Z,17
2022-12-29T03:52:37.050Z,17
2022-12-29T03:53:39.693Z,17
2022-12-29T03:54:42.221Z,17
2022-12-29T03:55:44.476Z,17
2022-12-29T03:56:47.018Z,16.9
2022-12-29T03:57:48.969Z,17
2022-12-29T03:58:51.479Z,16.9
2022-12-29T03:59:54.055Z,17
2022-12-29T04:00:56.585Z,17
2022-12-29T04:01:59.367Z,17
2022-12-29T04:03:02.683Z,17
2022-12-29T04:04:05.516Z,17
2022-12-29T04:05:08.106Z,17.1
2022-12-29T04:06:10.601Z,17
2022-12-29T04:07:13.199Z,17
2022-12-29T04:08:15.763Z,16.9
2022-12-29T04:09:19.226Z,17.1
2022-12-29T04:10:21.524Z,17
2022-12-29T04:12:28.813Z,16.9
2022-12-29T04:13:31.354Z,16.9
2022-12-29T04:14:34.400Z,17
2022-12-29T04:15:37.022Z,17
2022-12-29T04:16:39.893Z,17
2022-12-29T04:17:42.284Z,16.9
2022-12-29T04:18:44.529Z,16.9
2022-12-29T04:19:47.083Z,16.9
2022-12-29T04:20:49.607Z,17.1
2022-12-29T04:21:52.138Z,16.9
2022-12-29T04:22:54.748Z,17
2022-12-29T04:23:57.248Z,16.9
2022-12-29T04:24:59.871Z,17
2022-12-29T04:26:02.373Z,16.9
2022-12-29T04:27:04.937Z,17
2022-12-29T04:28:08.328Z,16.9
2022-12-29T04:29:10.848Z,17
2022-12-29T04:30:14.508Z,16.9
2022-12-29T04:31:21.351Z,16.8
2022-12-29T04:32:24.254Z,16.9
2022-12-29T04:33:26.780Z,16.9
2022-12-29T04:34:29.311Z,16.9
2022-12-29T04:35:31.868Z,16.9
2022-12-29T04:36:35.133Z,16.8
2022-12-29T04:37:37.664Z,16.8
2022-12-29T04:38:39.679Z,16.8
2022-12-29T04:39:42.203Z,16.9
2022-12-29T04:40:44.795Z,16.8
2022-12-29T04:41:47.075Z,16.8
2022-12-29T04:42:49.665Z,16.8
2022-12-29T04:43:51.595Z,16.9
2022-12-29T04:44:53.877Z,16.9
2022-12-29T04:45:55.715Z,16.9
2022-12-29T04:46:58.526Z,16.9
2022-12-29T04:48:01.045Z,16.9
2022-12-29T04:49:03.583Z,16.9
2022-12-29T04:50:05.822Z,16.9
2022-12-29T04:51:08.359Z,16.8
2022-12-29T04:52:10.865Z,16.8
2022-12-29T04:53:13.495Z,16.9
2022-12-29T04:54:16.151Z,16.9
2022-12-29T04:55:19.585Z,16.8
2022-12-29T04:56:22.052Z,16.9
2022-12-29T04:57:24.561Z,16.8
2022-12-29T04:58:27.072Z,16.8
2022-12-29T04:59:29.577Z,16.8
2022-12-29T05:00:32.086Z,16.8
2022-12-29T05:01:35.530Z,16.8
2022-12-29T05:02:39.242Z,16.8
2022-12-29T05:03:43.026Z,16.8
2022-12-29T05:04:45.770Z,16.8
2022-12-29T05:05:48.039Z,16.9
2022-12-29T05:06:50.038Z,16.8
2022-12-29T05:07:52.567Z,16.8
2022-12-29T05:08:55.126Z,16.8
2022-12-29T05:09:57.404Z,16.8
2022-12-29T05:10:59.931Z,16.8
2022-12-29T05:12:02.289Z,16.9
2022-12-29T05:13:04.786Z,16.8
2022-12-29T05:14:08.104Z,16.8
2022-12-29T05:15:10.645Z,16.8
2022-12-29T05:16:13.366Z,16.8
2022-12-29T05:17:16.589Z,16.7
2022-12-29T05:18:20.656Z,16.8
2022-12-29T05:19:23.194Z,16.8
2022-12-29T05:20:25.839Z,16.8
2022-12-29T05:21:27.819Z,16.8
2022-12-29T05:22:30.049Z,16.8
2022-12-29T05:23:32.559Z,16.8
2022-12-29T05:24:35.247Z,16.7
2022-12-29T05:25:37.546Z,16.8
2022-12-29T05:26:40.080Z,16.8
2022-12-29T05:27:42.651Z,16.8
2022-12-29T05:28:45.175Z,16.8
2022-12-29T05:29:47.924Z,16.7
2022-12-29T05:30:50.444Z,16.8
2022-12-29T05:31:53.110Z,16.8
2022-12-29T05:32:55.691Z,16.8
2022-12-29T05:33:58.186Z,16.8
2022-12-29T05:35:00.734Z,16.8
2022-12-29T05:36:03.022Z,16.8
2022-12-29T05:37:05.269Z,16.7
2022-12-29T05:38:08.071Z,16.7
2022-12-29T05:39:10.616Z,16.8
2022-12-29T05:40:13.132Z,16.8
2022-12-29T05:41:16.517Z,16.8
2022-12-29T05:42:19.824Z,16.8
2022-12-29T05:43:22.400Z,16.8
2022-12-29T05:44:24.926Z,16.8
2022-12-29T05:45:27.464Z,16.8
2022-12-29T05:46:29.847Z,16.8
2022-12-29T05:47:33.603Z,16.8
2022-12-29T05:49:40.808Z,16.7
2022-12-29T05:50:43.070Z,16.7
2022-12-29T05:51:45.720Z,16.7
2022-12-29T05:52:48.249Z,16.7
2022-12-29T05:53:50.795Z,16.7
2022-12-29T05:54:53.053Z,16.8
2022-12-29T05:55:55.313Z,16.8
2022-12-29T05:56:57.598Z,16.7
2022-12-29T05:58:00.146Z,16.8
2022-12-29T05:59:02.758Z,16.8
2022-12-29T06:00:05.392Z,16.8
2022-12-29T06:01:08.154Z,16.7
2022-12-29T06:02:10.760Z,16.7
2022-12-29T06:03:14.731Z,16.8
2022-12-29T06:04:17.969Z,16.8
2022-12-29T06:05:20.465Z,16.7
2022-12-29T06:06:23.011Z,16.8
2022-12-29T06:07:25.561Z,16.8
2022-12-29T06:08:28.080Z,16.7
2022-12-29T06:09:30.274Z,16.8
2022-12-29T06:10:32.544Z,16.7
2022-12-29T06:11:35.061Z,16.8
2022-12-29T06:12:37.618Z,16.8
2022-12-29T06:13:40.153Z,16.8
2022-12-29T06:14:42.783Z,16.7
2022-12-29T06:15:45.280Z,16.8
2022-12-29T06:16:47.960Z,16.7
2022-12-29T06:17:50.866Z,16.8
2022-12-29T06:18:53.118Z,16.7
2022-12-29T06:19:55.693Z,16.7
2022-12-29T06:20:57.948Z,16.8
2022-12-29T06:22:00.173Z,16.7
2022-12-29T06:23:02.756Z,16.7
2022-12-29T06:24:05.054Z,16.8
2022-12-29T06:25:07.619Z,16.7
2022-12-29T06:26:10.124Z,16.8
2022-12-29T06:27:12.665Z,16.7
2022-12-29T06:28:15.650Z,16.7
2022-12-29T06:29:19.619Z,16.7
2022-12-29T06:30:22.255Z,16.7
2022-12-29T06:31:24.564Z,16.8
2022-12-29T06:32:27.033Z,16.7
2022-12-29T06:33:29.570Z,16.7
2022-12-29T06:34:31.887Z,16.7
2022-12-29T06:35:34.406Z,16.6
2022-12-29T06:36:36.656Z,16.6
2022-12-29T06:37:39.211Z,16.7
2022-12-29T06:38:41.775Z,16.7
2022-12-29T06:39:44.117Z,16.6
2022-12-29T06:40:46.903Z,16.7
2022-12-29T06:41:49.215Z,16.7
2022-12-29T06:42:51.209Z,16.7
2022-12-29T06:43:53.797Z,16.7
2022-12-29T06:44:56.328Z,16.8
2022-12-29T06:45:59.185Z,16.8
2022-12-29T06:47:01.670Z,16.7
2022-12-29T06:48:04.253Z,16.7
2022-12-29T06:49:07.600Z,16.7
2022-12-29T06:50:10.115Z,16.7
2022-12-29T06:51:12.676Z,16.7
2022-12-29T06:52:15.215Z,16.7
2022-12-29T06:53:17.734Z,16.6
2022-12-29T06:54:20.261Z,16.7
2022-12-29T06:55:22.544Z,16.7
2022-12-29T06:56:24.827Z,16.7
2022-12-29T06:57:27.102Z,16.7
2022-12-29T06:58:29.347Z,16.7
2022-12-29T06:59:31.655Z,16.7
2022-12-29T07:00:34.232Z,16.7
2022-12-29T07:01:37.283Z,16.7
2022-12-29T07:02:40.704Z,16.7
2022-12-29T07:03:43.406Z,16.6
2022-12-29T07:04:45.947Z,16.6
2022-12-29T07:05:48.485Z,16.6
2022-12-29T07:06:51.026Z,16.7
2022-12-29T07:07:53.350Z,16.7
2022-12-29T07:08:55.915Z,16.7
2022-12-29T07:09:58.457Z,16.7
2022-12-29T07:11:00.738Z,16.7
2022-12-29T07:12:03.267Z,16.7
2022-12-29T07:13:05.848Z,16.7
2022-12-29T07:14:09.016Z,16.7
2022-12-29T07:15:11.350Z,16.6
2022-12-29T07:16:14.032Z,16.6
2022-12-29T07:17:17.004Z,16.7
2022-12-29T07:18:19.530Z,16.6
2022-12-29T07:19:21.801Z,16.7
2022-12-29T07:21:29.079Z,16.6
2022-12-29T07:22:31.304Z,16.6
2022-12-29T07:23:33.867Z,16.7
2022-12-29T07:24:36.434Z,16.6
2022-12-29T07:25:38.970Z,16.6
2022-12-29T07:26:41.234Z,16.6
2022-12-29T07:27:43.883Z,16.7
2022-12-29T07:28:46.415Z,16.6
2022-12-29T07:29:48.658Z,16.7
2022-12-29T07:30:50.951Z,16.7
2022-12-29T07:31:53.638Z,16.7
2022-12-29T07:32:56.280Z,16.6
2022-12-29T07:33:58.549Z,16.6
2022-12-29T07:35:00.785Z,16.6
2022-12-29T07:36:03.354Z,16.4
2022-12-29T07:37:05.875Z,16.7
2022-12-29T07:38:08.225Z,16.6
2022-12-29T07:39:10.845Z,16.8
2022-12-29T07:40:13.380Z,16.6
2022-12-29T07:41:17.460Z,16.6
2022-12-29T07:42:19.967Z,16.7
2022-12-29T07:43:22.497Z,16.6
2022-12-29T07:44:24.467Z,16.6
2022-12-29T07:45:26.715Z,16.7
2022-12-29T07:47:34.585Z,16.7
2022-12-29T07:48:37.246Z,16.7
2022-12-29T07:49:39.198Z,16.6
2022-12-29T07:50:41.756Z,16.6
2022-12-29T07:51:43.724Z,16.5
2022-12-29T07:52:46.277Z,16.7
2022-12-29T07:53:48.798Z,16.6
2022-12-29T07:54:51.319Z,16.7
2022-12-29T07:55:53.541Z,16.6
2022-12-29T07:56:56.057Z,16.7
2022-12-29T07:57:58.636Z,16.6
2022-12-29T07:59:00.973Z,16.7
2022-12-29T08:00:03.630Z,16.6
2022-12-29T08:01:05.951Z,16.6
2022-12-29T08:02:09.005Z,16.6
2022-12-29T08:03:11.769Z,16.6
2022-12-29T08:04:14.405Z,16.7
2022-12-29T08:05:17.226Z,16.7
2022-12-29T08:06:19.535Z,16.6
2022-12-29T08:07:22.167Z,16.6
2022-12-29T08:08:24.673Z,16.6
2022-12-29T08:09:27.191Z,16.5
2022-12-29T08:10:29.762Z,16.7
2022-12-29T08:11:32.019Z,16.7
2022-12-29T08:12:35.019Z,16.6
2022-12-29T08:13:37.560Z,16.6
2022-12-29T08:14:39.797Z,16.7
2022-12-29T08:15:42.487Z,16.7
2022-12-29T08:16:45.284Z,16.7
2022-12-29T08:17:47.543Z,16.6
2022-12-29T08:18:49.800Z,16.7
2022-12-29T08:19:52.399Z,16.7
2022-12-29T08:20:56.174Z,16.7
2022-12-29T08:21:58.805Z,16.6
2022-12-29T08:23:01.329Z,16.6
2022-12-29T08:24:03.832Z,16.6
2022-12-29T08:25:05.782Z,16.6
2022-12-29T08:26:07.271Z,16.6
2022-12-29T08:28:14.220Z,16.7
2022-12-29T08:29:16.485Z,16.7
2022-12-29T08:30:19.056Z,16.6
2022-12-29T08:31:21.879Z,16.7
2022-12-29T08:32:24.501Z,16.6
2022-12-29T08:33:26.742Z,16.7
2022-12-29T08:34:29.268Z,16.6
2022-12-29T08:35:31.854Z,16.6
2022-12-29T08:36:35.088Z,16.7
2022-12-29T08:37:37.667Z,16.7
2022-12-29T08:38:39.890Z,16.7
2022-12-29T08:39:42.428Z,16.6
2022-12-29T08:40:44.955Z,16.6
2022-12-29T08:41:47.546Z,16.6
2022-12-29T08:42:50.302Z,16.6
2022-12-29T08:43:52.555Z,16.6
2022-12-29T08:44:55.056Z,16.6
2022-12-29T08:45:57.204Z,16.6
2022-12-29T08:47:00.032Z,16.6
2022-12-29T08:48:02.270Z,16.6
2022-12-29T08:49:04.870Z,16.7
2022-12-29T08:50:07.450Z,16.7
2022-12-29T08:51:10.166Z,16.6
2022-12-29T08:52:13.187Z,16.6
2022-12-29T08:53:15.178Z,16.7
2022-12-29T08:54:17.175Z,16.6
2022-12-29T08:55:19.722Z,16.5
2022-12-29T08:56:21.984Z,16.6
2022-12-29T08:57:25.019Z,16.5
2022-12-29T08:58:26.968Z,16.6
2022-12-29T08:59:29.232Z,16.7
2022-12-29T09:00:31.814Z,16.6
2022-12-29T09:01:34.604Z,16.6
2022-12-29T09:02:38.392Z,16.7
2022-12-29T09:04:48.018Z,16.7
2022-12-29T09:05:51.243Z,16.7
2022-12-29T09:06:54.512Z,16.5
2022-12-29T09:07:57.617Z,16.6
2022-12-29T09:08:59.697Z,16.7
2022-12-29T09:10:02.213Z,16.7
2022-12-29T09:11:04.517Z,16.6
2022-12-29T09:12:07.191Z,16.6
2022-12-29T09:13:09.424Z,16.6
2022-12-29T09:14:12.029Z,16.7
2022-12-29T09:15:15.161Z,16.6
2022-12-29T09:16:17.922Z,16.7
2022-12-29T09:17:20.658Z,16.7
2022-12-29T09:18:22.627Z,16.6
2022-12-29T09:19:25.410Z,16.5
2022-12-29T09:20:27.950Z,16.7
2022-12-29T09:21:30.493Z,16.6
2022-12-29T09:22:33.252Z,16.6
2022-12-29T09:23:35.525Z,16.6
2022-12-29T09:24:37.801Z,16.5
2022-12-29T09:25:40.074Z,16.7
2022-12-29T09:27:47.586Z,16.6
2022-12-29T09:28:49.818Z,16.6
2022-12-29T09:29:52.100Z,16.6
2022-12-29T09:30:54.417Z,16.6
2022-12-29T09:31:56.938Z,16.6
2022-12-29T09:32:59.661Z,16.6
2022-12-29T09:34:01.911Z,16.6
2022-12-29T09:35:03.881Z,16.5
2022-12-29T09:36:06.313Z,16.7
2022-12-29T09:37:08.612Z,16.6
2022-12-29T09:38:11.247Z,16.6
2022-12-29T09:39:13.790Z,16.7
2022-12-29T09:40:16.081Z,16.6
2022-12-29T09:41:18.414Z,16.6
2022-12-29T09:42:20.676Z,16.6
2022-12-29T09:43:22.949Z,16.7
2022-12-29T09:44:26.341Z,16.6
2022-12-29T09:45:28.622Z,16.6
2022-12-29T09:46:31.084Z,16.5
2022-12-29T09:47:34.643Z,16.7
2022-12-29T09:48:37.347Z,16.6
2022-12-29T09:49:39.608Z,16.7
2022-12-29T09:50:42.123Z,16.6
2022-12-29T09:51:44.713Z,16.6
2022-12-29T09:52:46.965Z,16.6
2022-12-29T09:53:49.587Z,16.6
2022-12-29T09:55:57.160Z,16.5
2022-12-29T09:56:59.427Z,16.7
2022-12-29T09:58:01.943Z,16.6
2022-12-29T09:59:04.199Z,16.6
2022-12-29T10:00:06.497Z,16.6
2022-12-29T10:01:09.202Z,16.6
2022-12-29T10:02:12.627Z,16.6
2022-12-29T10:03:16.098Z,16.7
2022-12-29T10:04:19.186Z,16.5
2022-12-29T10:05:21.173Z,16.6
2022-12-29T10:06:25.279Z,16.6
2022-12-29T10:08:32.837Z,16.6
2022-12-29T10:09:35.612Z,16.6
2022-12-29T10:10:37.850Z,16.7
2022-12-29T10:11:39.827Z,16.5
2022-12-29T10:12:42.098Z,16.7
2022-12-29T10:13:44.612Z,16.6
2022-12-29T10:14:46.883Z,16.5
2022-12-29T10:15:49.423Z,16.4
2022-12-29T10:16:52.155Z,16.5
2022-12-29T10:17:54.593Z,16.4
2022-12-29T10:18:57.194Z,16.5
2022-12-29T10:19:59.731Z,16.4
2022-12-29T10:21:01.982Z,16.5
2022-12-29T10:22:04.547Z,16.4
2022-12-29T10:23:06.830Z,16.4
2022-12-29T10:24:09.443Z,16.4
2022-12-29T10:25:12.128Z,16.4
2022-12-29T10:26:14.265Z,16.3
2022-12-29T10:27:16.635Z,16.4
2022-12-29T10:28:19.489Z,16.4
2022-12-29T10:29:22.237Z,16.4
2022-12-29T10:30:24.560Z,16.3
2022-12-29T10:31:26.946Z,16.3
2022-12-29T10:32:29.387Z,16.3
2022-12-29T10:33:31.918Z,16.3
2022-12-29T10:34:34.480Z,16.3
2022-12-29T10:35:36.757Z,16.3
2022-12-29T10:36:39.066Z,16.3
2022-12-29T10:37:41.079Z,16.2
2022-12-29T10:38:42.777Z,16.2
2022-12-29T10:39:45.078Z,16.3
2022-12-29T10:40:47.718Z,16.2
2022-12-29T10:41:49.714Z,16.3
2022-12-29T10:42:52.259Z,16.3
2022-12-29T10:43:54.824Z,16.2
2022-12-29T10:44:57.114Z,16.3
2022-12-29T10:45:59.768Z,16.3
2022-12-29T10:47:02.665Z,16.2
2022-12-29T10:48:04.939Z,16.3
2022-12-29T10:49:07.532Z,16.2
2022-12-29T10:50:09.793Z,16.2
2022-12-29T10:51:11.779Z,16.2
2022-12-29T10:52:14.021Z,16.2
2022-12-29T10:53:16.269Z,16.2
2022-12-29T10:54:18.822Z,16.3
2022-12-29T10:55:21.408Z,16.2
2022-12-29T10:56:24.122Z,16.2
2022-12-29T10:57:26.095Z,16.2
2022-12-29T10:58:28.367Z,16.2
2022-12-29T10:59:30.625Z,16.3
2022-12-29T11:00:33.038Z,16.2
2022-12-29T11:01:36.391Z,16.2
2022-12-29T11:02:39.812Z,16.1
2022-12-29T11:03:42.973Z,16.1
2022-12-29T11:04:45.324Z,16.2
2022-12-29T11:05:47.596Z,16.1
2022-12-29T11:06:49.836Z,16.2
2022-12-29T11:07:52.402Z,16.2
2022-12-29T11:08:54.403Z,16.2
2022-12-29T11:09:56.971Z,16.2
2022-12-29T11:10:59.577Z,16.2
2022-12-29T11:12:02.237Z,16.1
2022-12-29T11:13:04.810Z,16.2
2022-12-29T11:14:06.825Z,16.1
2022-12-29T11:15:09.149Z,16.2
2022-12-29T11:16:11.258Z,16.3
2022-12-29T11:17:13.390Z,16.1
2022-12-29T11:18:15.352Z,16.2
2022-12-29T11:19:17.864Z,16.2
2022-12-29T11:20:20.365Z,16.2
2022-12-29T11:21:22.637Z,16.3
2022-12-29T11:22:25.227Z,16.3
2022-12-29T11:23:27.225Z,16.2
2022-12-29T11:24:29.524Z,16.2
2022-12-29T11:25:32.131Z,16.3
2022-12-29T11:26:35.990Z,16.3
2022-12-29T11:27:38.637Z,16.2
2022-12-29T11:28:40.905Z,16.2
2022-12-29T11:29:43.144Z,16.3
2022-12-29T11:30:45.749Z,16.1
2022-12-29T11:31:48.463Z,16.1
2022-12-29T11:32:51.095Z,16.1
2022-12-29T11:33:53.353Z,16.2
2022-12-29T11:34:55.599Z,16.1
2022-12-29T11:35:57.573Z,16.2
2022-12-29T11:36:59.875Z,16.1
2022-12-29T11:38:02.437Z,16.2
2022-12-29T11:40:09.991Z,16.2
2022-12-29T11:41:12.577Z,16.1
2022-12-29T11:42:14.895Z,16.2
2022-12-29T11:43:17.220Z,16.2
2022-12-29T11:44:19.911Z,16.1
2022-12-29T11:45:22.184Z,16.3
2022-12-29T11:46:24.816Z,16.2
2022-12-29T11:47:27.335Z,16.1
2022-12-29T11:48:30.058Z,16.1
2022-12-29T11:49:32.647Z,16.2
2022-12-29T11:50:34.912Z,16.1
2022-12-29T11:51:37.415Z,16.1
2022-12-29T11:52:39.936Z,16.1
2022-12-29T11:53:42.386Z,16.1
2022-12-29T11:54:44.916Z,16
2022-12-29T11:55:47.176Z,16.2
2022-12-29T11:56:49.158Z,16.1
2022-12-29T11:57:51.422Z,16.2
2022-12-29T11:58:54.095Z,16.1
2022-12-29T11:59:56.501Z,16.2
2022-12-29T12:00:58.935Z,16.1
2022-12-29T12:02:01.451Z,16.1
2022-12-29T12:03:04.806Z,16.1
2022-12-29T12:04:07.929Z,16.2
2022-12-29T12:05:10.962Z,16.1
2022-12-29T12:06:12.970Z,16.2
2022-12-29T12:07:15.492Z,16.1
2022-12-29T12:09:22.731Z,16.2
2022-12-29T12:10:25.282Z,16.1
2022-12-29T12:11:27.450Z,16.1
2022-12-29T12:12:29.962Z,16.1
2022-12-29T12:13:32.591Z,16.1
2022-12-29T12:14:35.268Z,16.1
2022-12-29T12:16:42.932Z,16.1
2022-12-29T12:17:45.886Z,16.1
2022-12-29T12:18:48.444Z,16.1
2022-12-29T12:19:50.787Z,16.2
2022-12-29T12:20:53.363Z,16.2
2022-12-29T12:21:55.879Z,16.1
2022-12-29T12:22:58.133Z,16.1
2022-12-29T12:24:00.667Z,16.2
2022-12-29T12:25:03.222Z,16.2
2022-12-29T12:26:04.943Z,16.1
2022-12-29T12:27:07.527Z,16.2
2022-12-29T12:28:10.064Z,16.1
2022-12-29T12:29:12.047Z,16.2
2022-12-29T12:30:14.722Z,16.2
2022-12-29T12:31:17.125Z,16.2
2022-12-29T12:32:19.868Z,16.2
2022-12-29T12:33:21.880Z,16.1
2022-12-29T12:34:24.446Z,16.1
2022-12-29T12:35:27.344Z,16.2
2022-12-29T12:36:29.372Z,16.2
2022-12-29T12:37:31.357Z,16.1
2022-12-29T12:38:33.636Z,16.2
2022-12-29T12:39:35.789Z,16.1
2022-12-29T12:40:38.156Z,16.2
2022-12-29T12:41:40.754Z,16.2
2022-12-29T12:42:43.297Z,16.2
2022-12-29T12:43:45.921Z,16.2
2022-12-29T12:44:48.479Z,16.2
2022-12-29T12:45:51.069Z,16.2
2022-12-29T12:46:54.093Z,16.3
2022-12-29T12:47:57.027Z,16.2
2022-12-29T12:48:59.537Z,16.1
2022-12-29T12:50:01.514Z,16.2
2022-12-29T12:51:03.487Z,16.1
2022-12-29T12:52:06.450Z,16.2
2022-12-29T12:53:09.013Z,16.2
2022-12-29T12:54:11.352Z,16.2
2022-12-29T12:55:14.138Z,16.2
2022-12-29T12:56:16.423Z,16.3
2022-12-29T12:57:18.955Z,16.2
2022-12-29T12:58:21.204Z,16.2
2022-12-29T12:59:23.759Z,16.3
2022-12-29T13:00:26.294Z,16.2
2022-12-29T13:01:29.104Z,16.3
2022-12-29T13:02:32.466Z,16.2
2022-12-29T13:03:36.174Z,16.2
2022-12-29T13:04:39.077Z,16.3
2022-12-29T13:05:41.336Z,16.3
2022-12-29T13:06:43.848Z,16.2
2022-12-29T13:07:46.398Z,16.3
2022-12-29T13:08:48.956Z,16.2
2022-12-29T13:09:51.202Z,16.2
2022-12-29T13:10:53.947Z,16.3
2022-12-29T13:11:56.519Z,16.3
2022-12-29T13:12:59.038Z,16.3
2022-12-29T13:14:01.469Z,16.2
2022-12-29T13:15:03.806Z,16.3
2022-12-29T13:17:11.099Z,16.2
2022-12-29T13:18:13.711Z,16.2
2022-12-29T13:19:16.222Z,16.2
2022-12-29T13:20:18.818Z,16.3
2022-12-29T13:21:21.118Z,16.3
2022-12-29T13:22:23.667Z,16.2
2022-12-29T13:23:25.884Z,16.2
2022-12-29T13:24:28.442Z,16.2
2022-12-29T13:25:30.962Z,16.3
2022-12-29T13:26:33.501Z,16.3
2022-12-29T13:28:40.741Z,16.3
2022-12-29T13:29:43.243Z,16.3
2022-12-29T13:30:45.917Z,16.3
2022-12-29T13:31:48.810Z,16.3
2022-12-29T13:32:51.085Z,16.3
2022-12-29T13:33:53.713Z,16.3
2022-12-29T13:34:56.130Z,16.3
2022-12-29T13:35:58.674Z,16.3
2022-12-29T13:37:00.676Z,16.3
2022-12-29T13:38:03.213Z,16.3
2022-12-29T13:39:05.971Z,16.2
2022-12-29T13:40:08.217Z,16.3
2022-12-29T13:41:10.977Z,16.3
2022-12-29T13:42:13.243Z,16.2
2022-12-29T13:43:15.775Z,16.3
2022-12-29T13:44:18.030Z,16.3
2022-12-29T13:45:20.279Z,16.3
2022-12-29T13:46:22.938Z,16.3
2022-12-29T13:47:25.383Z,16.3
2022-12-29T13:48:27.524Z,16.3
2022-12-29T13:49:30.126Z,16.3
2022-12-29T13:50:32.717Z,16.3
2022-12-29T13:51:34.938Z,16.3
2022-12-29T13:52:37.475Z,16.3
2022-12-29T13:53:39.742Z,16.3
2022-12-29T13:54:41.998Z,16.3
2022-12-29T13:55:44.542Z,16.3
2022-12-29T13:56:46.820Z,16.3
2022-12-29T13:57:48.804Z,16.3
2022-12-29T13:58:51.429Z,16.2
2022-12-29T13:59:53.686Z,16.3
2022-12-29T14:00:56.199Z,16.3
2022-12-29T14:01:58.937Z,16.3
2022-12-29T14:03:02.886Z,16.3
2022-12-29T14:04:06.288Z,16.3
2022-12-29T14:05:09.140Z,16.3
2022-12-29T14:06:11.643Z,16.4
2022-12-29T14:07:14.151Z,16.4
2022-12-29T14:08:16.687Z,16.3
2022-12-29T14:09:20.316Z,16.2
2022-12-29T14:10:22.838Z,16.3
2022-12-29T14:11:24.801Z,16.4
2022-12-29T14:12:27.316Z,16.4
2022-12-29T14:13:28.741Z,16.3
2022-12-29T14:14:31.001Z,16.4
2022-12-29T14:15:33.274Z,16.4
2022-12-29T14:16:35.893Z,16.3